Time;durP1;ratioP1;P1;durP2;ratioP2;P2;SDS_P1;SDS_P2;PMS_P1;PMS_P2;Temp;Humidity;BMP_temperature;BMP_pressure;BME280_temperature;BME280_humidity;BME280_pressure;Samples;Min_cycle;Max_cycle;Signal;HPM_P1;HPM_P2
2022/04/15 00:01:37;;;;;;;14.38;7.97;;;9.00;99.90;;;;;;5112386;28;20407;-66
2022/04/15 00:04:03;;;;;;;20.40;8.38;;;9.00;99.90;;;;;;5112139;28;20079;-66
2022/04/15 00:06:29;;;;;;;16.77;8.45;;;9.00;99.90;;;;;;5112040;28;20082;-67
2022/04/15 00:08:55;;;;;;;14.05;7.78;;;8.90;99.90;;;;;;5111677;28;20085;-67
2022/04/15 00:11:21;;;;;;;16.27;8.25;;;8.90;99.90;;;;;;5111958;28;20032;-66
2022/04/15 00:13:47;;;;;;;16.88;7.60;;;8.90;99.90;;;;;;5112012;28;20092;-66
2022/04/15 00:16:13;;;;;;;12.57;7.63;;;8.90;99.90;;;;;;5112051;28;20031;-66
2022/04/15 00:18:39;;;;;;;15.52;7.50;;;8.90;99.90;;;;;;5111660;28;20511;-66
2022/04/15 00:21:05;;;;;;;17.92;8.23;;;8.90;99.90;;;;;;5111798;28;20069;-66
2022/04/15 00:23:31;;;;;;;15.35;7.80;;;8.90;99.90;;;;;;5111678;28;20040;-67
2022/04/15 00:25:57;;;;;;;16.85;7.53;;;8.90;99.90;;;;;;5111380;28;20035;-66
2022/04/15 00:28:24;;;;;;;12.82;7.70;;;8.90;99.90;;;;;;5111437;28;20032;-66
2022/04/15 00:30:49;;;;;;;17.15;8.05;;;8.90;99.90;;;;;;5111729;28;20035;-66
2022/04/15 00:33:15;;;;;;;14.38;6.75;;;8.80;99.90;;;;;;5111685;28;20564;-66
2022/04/15 00:35:41;;;;;;;15.05;7.28;;;8.70;99.90;;;;;;5111715;28;20032;-66
2022/04/15 00:38:06;;;;;;;12.95;7.32;;;8.80;99.90;;;;;;5111424;28;20482;-66
2022/04/15 00:40:33;;;;;;;10.80;7.90;;;8.80;99.90;;;;;;5111216;28;20049;-66
2022/04/15 00:42:58;;;;;;;15.63;8.18;;;8.70;99.90;;;;;;5111619;28;20036;-67
2022/04/15 00:45:24;;;;;;;14.38;8.18;;;8.70;99.90;;;;;;5111601;28;20055;-66
2022/04/15 00:47:57;;;;;;;15.20;7.90;;;8.70;99.90;;;;;;5111604;28;20118;-66
2022/04/15 00:50:43;;;;;;;16.35;7.60;;;8.60;99.90;;;;;;5111157;28;20035;-66
2022/04/15 00:53:10;;;;;;;16.15;7.78;;;8.60;99.90;;;;;;5110805;28;20444;-66
2022/04/15 00:55:38;;;;;;;10.25;7.18;;;8.60;99.90;;;;;;5111516;28;20039;-66
2022/04/15 00:58:04;;;;;;;13.38;8.40;;;8.60;99.90;;;;;;5111214;28;20092;-66
2022/04/15 01:00:33;;;;;;;14.05;7.80;;;8.60;99.90;;;;;;5111003;28;20096;-67
2022/04/15 01:03:00;;;;;;;10.30;7.80;;;8.60;99.90;;;;;;5111251;28;20035;-67
2022/04/15 01:05:27;;;;;;;16.00;8.15;;;8.60;99.90;;;;;;5111129;28;20551;-65
2022/04/15 01:07:57;;;;;;;12.68;8.00;;;8.50;99.90;;;;;;5111125;28;20093;-66
2022/04/15 01:10:25;;;;;;;16.77;8.63;;;8.60;99.90;;;;;;5111092;28;20032;-66
2022/04/15 01:12:56;;;;;;;12.07;7.85;;;8.50;99.90;;;;;;5111008;28;20492;-67
2022/04/15 01:15:26;;;;;;;14.75;7.53;;;8.50;99.90;;;;;;5111308;28;20153;-65
2022/04/15 01:17:52;;;;;;;14.15;7.32;;;8.50;99.90;;;;;;5111215;28;20042;-66
2022/04/15 01:20:18;;;;;;;17.48;9.07;;;8.40;99.90;;;;;;5110876;28;20046;-66
2022/04/15 01:22:55;;;;;;;14.35;8.23;;;8.40;99.90;;;;;;5111046;28;20079;-66
2022/04/15 01:25:21;;;;;;;12.55;7.70;;;8.50;99.90;;;;;;5111223;28;20038;-66
2022/04/15 01:27:48;;;;;;;17.77;8.93;;;8.40;99.90;;;;;;5111147;28;20044;-66
2022/04/15 01:30:19;;;;;;;12.35;8.35;;;8.50;99.90;;;;;;5110815;28;20084;-66
2022/04/15 01:32:45;;;;;;;14.48;8.23;;;8.50;99.90;;;;;;5110862;28;20076;-67
2022/04/15 01:35:13;;;;;;;13.85;8.32;;;8.50;99.90;;;;;;5111211;28;20437;-66
2022/04/15 01:37:39;;;;;;;12.65;8.70;;;8.50;99.90;;;;;;5114042;28;20039;-66
2022/04/15 01:40:06;;;;;;;14.52;7.95;;;8.50;99.90;;;;;;5114760;28;20041;-66
2022/04/15 01:42:33;;;;;;;16.27;8.70;;;8.60;99.90;;;;;;5114797;28;20061;-66
2022/04/15 01:44:59;;;;;;;9.60;8.40;;;8.60;99.90;;;;;;5114706;28;20043;-66
2022/04/15 01:47:25;;;;;;;17.88;8.50;;;8.60;99.90;;;;;;5115189;28;20600;-66
2022/04/15 01:49:50;;;;;;;15.13;8.18;;;8.50;99.90;;;;;;5114618;28;20114;-66
2022/04/15 01:52:16;;;;;;;14.52;7.88;;;8.60;99.90;;;;;;5114505;28;20558;-67
2022/04/15 01:54:41;;;;;;;12.98;8.88;;;8.50;99.90;;;;;;5114778;28;20047;-66
2022/04/15 01:57:07;;;;;;;15.23;8.38;;;8.60;99.90;;;;;;5114595;28;20651;-66
2022/04/15 01:59:33;;;;;;;11.70;7.78;;;8.60;99.90;;;;;;5114266;28;20427;-66
2022/04/15 02:01:58;;;;;;;16.10;7.85;;;8.50;99.90;;;;;;5114409;28;20031;-67
2022/04/15 02:04:27;;;;;;;20.08;8.05;;;8.60;99.90;;;;;;5114557;28;20032;-66
2022/04/15 02:06:53;;;;;;;15.80;8.55;;;8.60;99.90;;;;;;5114571;28;20031;-67
2022/04/15 02:09:20;;;;;;;14.32;7.85;;;8.60;99.90;;;;;;5114182;28;20031;-66
2022/04/15 02:11:45;;;;;;;13.05;7.63;;;8.60;99.90;;;;;;5114305;28;20067;-66
2022/04/15 02:14:16;;;;;;;12.30;7.95;;;8.60;99.90;;;;;;5114206;28;20530;-66
2022/04/15 02:16:43;;;;;;;10.27;7.40;;;8.60;99.90;;;;;;5114496;28;20114;-66
2022/04/15 02:19:08;;;;;;;15.00;8.00;;;8.60;99.90;;;;;;5114088;28;20040;-67
2022/04/15 02:21:34;;;;;;;13.25;6.75;;;8.60;99.90;;;;;;5114205;28;20123;-66
2022/04/15 02:23:59;;;;;;;12.65;7.00;;;8.60;99.90;;;;;;5114096;28;20117;-66
2022/04/15 02:26:25;;;;;;;15.55;7.45;;;8.50;99.90;;;;;;5114035;28;20055;-66
2022/04/15 02:28:51;;;;;;;14.25;7.88;;;8.50;99.90;;;;;;5113641;28;20491;-66
2022/04/15 02:31:17;;;;;;;16.15;8.68;;;8.50;99.90;;;;;;5113808;28;20065;-66
2022/04/15 02:33:43;;;;;;;12.25;6.85;;;8.60;99.90;;;;;;5113832;28;20043;-66
2022/04/15 02:36:09;;;;;;;8.68;6.90;;;8.50;99.90;;;;;;5114313;28;20035;-67
2022/04/15 02:38:35;;;;;;;12.73;7.57;;;8.50;99.90;;;;;;5095573;28;20733;-67
2022/04/15 02:41:03;;;;;;;13.50;7.40;;;8.50;99.90;;;;;;5113949;28;20388;-66
2022/04/15 02:43:31;;;;;;;10.85;7.43;;;8.60;99.90;;;;;;5095310;28;20490;-66
2022/04/15 02:46:06;;;;;;;17.33;7.45;;;8.60;99.90;;;;;;5113881;28;20505;-67
2022/04/15 02:48:32;;;;;;;15.15;7.88;;;8.50;99.90;;;;;;5113265;28;20054;-66
2022/04/15 02:50:59;;;;;;;12.60;7.53;;;8.60;99.90;;;;;;5095219;28;20035;-67
2022/04/15 02:53:25;;;;;;;15.35;8.13;;;8.60;99.90;;;;;;5113519;28;20040;-66
2022/04/15 02:55:51;;;;;;;16.40;8.27;;;8.60;99.90;;;;;;5113387;28;20169;-66
2022/04/15 02:58:16;;;;;;;13.55;8.63;;;8.70;99.90;;;;;;5113248;28;20111;-69
2022/04/15 03:00:42;;;;;;;15.93;7.60;;;8.70;99.90;;;;;;5113103;28;20193;-67
2022/04/15 03:03:07;;;;;;;15.57;8.20;;;8.60;99.90;;;;;;5113356;28;20161;-67
2022/04/15 03:05:33;;;;;;;14.40;7.93;;;8.60;99.90;;;;;;5113307;28;20070;-66
2022/04/15 03:07:59;;;;;;;13.98;8.55;;;8.60;99.90;;;;;;5113284;28;20395;-65
2022/04/15 03:10:24;;;;;;;13.32;7.20;;;8.60;99.90;;;;;;5112771;28;20684;-66
2022/04/15 03:12:50;;;;;;;13.00;8.65;;;8.60;99.90;;;;;;5112993;28;20039;-68
2022/04/15 03:15:16;;;;;;;14.32;8.75;;;8.60;99.90;;;;;;5113282;28;20043;-66
2022/04/15 03:17:42;;;;;;;12.40;8.07;;;8.60;99.90;;;;;;5113273;28;20039;-68
2022/04/15 03:20:09;;;;;;;12.68;8.32;;;8.60;99.90;;;;;;5112757;28;20541;-66
2022/04/15 03:22:40;;;;;;;20.83;8.70;;;8.60;99.90;;;;;;5112819;28;20050;-66
2022/04/15 03:25:08;;;;;;;13.77;8.80;;;8.70;99.90;;;;;;5112785;28;20389;-66
2022/04/15 03:27:33;;;;;;;14.30;8.13;;;8.60;99.90;;;;;;5112997;28;20088;-66
2022/04/15 03:29:59;;;;;;;14.90;8.38;;;8.70;99.90;;;;;;5112669;28;20547;-66
2022/04/15 03:32:25;;;;;;;12.43;8.70;;;8.70;99.90;;;;;;5094328;28;20032;-66
2022/04/15 03:34:55;;;;;;;13.20;7.85;;;8.60;99.90;;;;;;5112823;28;20036;-68
2022/04/15 03:37:21;;;;;;;13.68;7.97;;;8.60;99.90;;;;;;5112665;28;20031;-66
2022/04/15 03:39:47;;;;;;;15.93;8.73;;;8.70;99.90;;;;;;5112157;28;20515;-67
2022/04/15 03:42:13;;;;;;;18.92;8.55;;;8.70;99.90;;;;;;5112650;28;20085;-68
2022/04/15 03:44:38;;;;;;;19.10;8.38;;;8.70;99.90;;;;;;5112600;28;20035;-66
2022/04/15 03:47:05;;;;;;;20.08;9.27;;;8.70;99.90;;;;;;5112605;28;20097;-66
2022/04/15 03:49:31;;;;;;;13.48;7.38;;;8.70;99.90;;;;;;5112444;28;20042;-67
2022/04/15 03:51:56;;;;;;;16.90;8.70;;;8.70;99.90;;;;;;5112505;28;20040;-67
2022/04/15 03:54:22;;;;;;;13.98;8.98;;;8.80;99.90;;;;;;5112261;28;20077;-67
2022/04/15 03:56:47;;;;;;;11.25;8.60;;;8.80;99.90;;;;;;5112627;28;20040;-67
2022/04/15 03:59:14;;;;;;;11.52;7.63;;;8.80;99.90;;;;;;5111507;28;20392;-68
2022/04/15 04:01:39;;;;;;;15.25;7.93;;;8.70;99.90;;;;;;5112343;28;20063;-67
2022/04/15 04:04:05;;;;;;;14.30;7.75;;;8.70;99.90;;;;;;5093685;28;20051;-66
2022/04/15 04:06:30;;;;;;;11.05;7.47;;;8.80;99.90;;;;;;5112208;28;20050;-66
2022/04/15 04:08:56;;;;;;;14.50;8.52;;;8.70;99.90;;;;;;5111516;28;20036;-66
2022/04/15 04:11:22;;;;;;;11.88;7.65;;;8.70;99.90;;;;;;5112136;28;20093;-67
2022/04/15 04:13:47;;;;;;;13.38;8.23;;;8.70;99.90;;;;;;5111807;28;20495;-66
2022/04/15 04:16:13;;;;;;;12.85;8.18;;;8.70;99.90;;;;;;5111925;28;20043;-66
2022/04/15 04:18:41;;;;;;;13.63;8.15;;;8.70;99.90;;;;;;5111692;28;20031;-66
2022/04/15 04:21:07;;;;;;;14.52;8.45;;;8.70;99.90;;;;;;5111783;28;20118;-66
2022/04/15 04:23:34;;;;;;;15.05;8.73;;;8.70;99.90;;;;;;5111534;28;20122;-66
2022/04/15 04:25:59;;;;;;;15.40;8.80;;;8.80;99.90;;;;;;5111515;28;20043;-65
2022/04/15 04:28:25;;;;;;;18.40;7.78;;;8.80;99.90;;;;;;5111339;28;20044;-67
2022/04/15 04:30:52;;;;;;;13.10;6.97;;;8.80;99.90;;;;;;5111699;28;20671;-67
2022/04/15 04:33:18;;;;;;;13.23;7.60;;;8.80;99.90;;;;;;5111564;28;20042;-66
2022/04/15 04:35:43;;;;;;;8.88;7.68;;;8.80;99.90;;;;;;5111704;28;20046;-66
2022/04/15 04:38:09;;;;;;;17.08;7.70;;;8.80;99.90;;;;;;5111556;28;20052;-66
2022/04/15 04:40:35;;;;;;;14.52;7.70;;;8.90;99.90;;;;;;5111315;28;20499;-67
2022/04/15 04:43:01;;;;;;;13.60;7.93;;;8.80;99.90;;;;;;5111318;28;20495;-67
2022/04/15 04:45:27;;;;;;;12.75;7.30;;;8.80;99.90;;;;;;5111562;28;20044;-66
2022/04/15 04:47:54;;;;;;;12.60;7.28;;;8.80;99.90;;;;;;5111610;28;20081;-67
2022/04/15 04:50:20;;;;;;;11.27;7.47;;;8.80;99.90;;;;;;5111269;28;20036;-66
2022/04/15 04:52:46;;;;;;;13.02;7.13;;;8.90;99.90;;;;;;5111265;28;20031;-67
2022/04/15 04:55:13;;;;;;;10.38;7.72;;;8.90;99.90;;;;;;5109683;28;20047;-66
2022/04/15 04:57:39;;;;;;;15.15;9.00;;;8.90;99.90;;;;;;5107759;28;20119;-66
2022/04/15 05:00:06;;;;;;;14.98;7.68;;;8.90;99.90;;;;;;5089665;28;20055;-67
2022/04/15 05:02:32;;;;;;;12.32;7.45;;;8.90;99.90;;;;;;5108338;28;20077;-66
2022/04/15 05:04:58;;;;;;;16.10;8.32;;;8.80;99.90;;;;;;5108965;28;20040;-67
2022/04/15 05:07:23;;;;;;;18.88;8.55;;;8.90;99.90;;;;;;5109569;28;20104;-67
2022/04/15 05:09:49;;;;;;;11.88;7.65;;;8.80;99.90;;;;;;5109904;28;20038;-68
2022/04/15 05:12:15;;;;;;;9.82;7.30;;;8.80;99.90;;;;;;5112433;28;20504;-67
2022/04/15 05:14:40;;;;;;;14.27;7.90;;;8.80;99.90;;;;;;5115076;28;20047;-66
2022/04/15 05:17:06;;;;;;;12.90;7.35;;;8.80;99.90;;;;;;5114894;28;20088;-66
2022/04/15 05:19:32;;;;;;;11.90;7.70;;;8.80;99.90;;;;;;5114630;28;20115;-67
2022/04/15 05:21:58;;;;;;;11.35;7.40;;;8.80;99.90;;;;;;5114703;28;20096;-67
2022/04/15 05:24:23;;;;;;;10.80;7.55;;;8.80;99.90;;;;;;5113942;28;20047;-66
2022/04/15 05:26:49;;;;;;;13.88;7.53;;;8.80;99.90;;;;;;5115147;28;20686;-67
2022/04/15 05:29:14;;;;;;;11.98;7.57;;;8.80;99.90;;;;;;5115037;28;20043;-66
2022/04/15 05:31:40;;;;;;;16.63;8.50;;;8.80;99.90;;;;;;5115335;28;20071;-68
2022/04/15 05:34:05;;;;;;;10.88;8.18;;;8.80;99.90;;;;;;5115088;28;20058;-67
2022/04/15 05:36:31;;;;;;;14.35;7.88;;;8.80;99.90;;;;;;5115184;28;20050;-67
2022/04/15 05:38:57;;;;;;;12.10;8.30;;;8.80;99.90;;;;;;5114703;28;20063;-66
2022/04/15 05:41:22;;;;;;;14.70;8.32;;;8.80;99.90;;;;;;5114880;28;20038;-67
2022/04/15 05:43:48;;;;;;;11.77;8.43;;;8.80;99.90;;;;;;5114968;28;20384;-67
2022/04/15 05:46:15;;;;;;;16.33;8.07;;;8.80;99.90;;;;;;5115056;28;20497;-67
2022/04/15 05:48:40;;;;;;;9.65;7.50;;;8.80;99.90;;;;;;5114737;28;20180;-68
2022/04/15 05:51:06;;;;;;;14.20;8.25;;;8.80;99.90;;;;;;5114666;28;20123;-66
2022/04/15 05:53:31;;;;;;;13.85;7.72;;;8.80;99.90;;;;;;5114613;28;20042;-66
2022/04/15 05:55:58;;;;;;;10.02;7.18;;;8.70;99.90;;;;;;5114450;28;20042;-66
2022/04/15 05:58:27;;;;;;;8.38;6.53;;;8.80;99.90;;;;;;5114404;28;20480;-69
2022/04/15 06:00:53;;;;;;;8.68;6.05;;;8.80;99.90;;;;;;5114321;28;20483;-68
2022/04/15 06:03:20;;;;;;;6.97;5.45;;;8.80;99.90;;;;;;5114525;28;20031;-67
2022/04/15 06:05:47;;;;;;;9.43;5.88;;;8.80;99.90;;;;;;5114380;28;20039;-66
2022/04/15 06:08:13;;;;;;;7.18;5.45;;;8.70;99.90;;;;;;5114235;28;20629;-67
2022/04/15 06:10:38;;;;;;;7.88;4.75;;;8.70;99.90;;;;;;5113993;28;20032;-66
2022/04/15 06:13:06;;;;;;;8.38;5.40;;;8.70;99.90;;;;;;5114122;28;20109;-66
2022/04/15 06:15:32;;;;;;;7.55;5.45;;;8.80;99.90;;;;;;5114152;28;20124;-65
2022/04/15 06:17:59;;;;;;;8.90;5.80;;;8.80;99.90;;;;;;5095971;28;20043;-65
2022/04/15 06:20:25;;;;;;;9.10;6.53;;;8.80;99.90;;;;;;5113775;28;20515;-67
2022/04/15 06:22:51;;;;;;;8.32;5.50;;;8.80;99.90;;;;;;5095070;28;20047;-66
2022/04/15 06:25:16;;;;;;;12.57;6.15;;;8.80;99.90;;;;;;5112770;28;20071;-66
2022/04/15 06:27:42;;;;;;;7.97;5.30;;;8.80;99.90;;;;;;5112151;28;20039;-67
2022/04/15 06:30:08;;;;;;;6.90;5.05;;;8.80;99.90;;;;;;5113663;28;20039;-67
2022/04/15 06:32:34;;;;;;;7.65;5.95;;;8.70;99.90;;;;;;5113857;28;20092;-66
2022/04/15 06:35:00;;;;;;;7.65;6.03;;;8.80;99.90;;;;;;5113755;28;20054;-67
2022/04/15 06:37:25;;;;;;;7.20;5.95;;;8.80;99.90;;;;;;5113745;28;20039;-67
2022/04/15 06:39:51;;;;;;;5.55;4.95;;;8.80;99.90;;;;;;5113254;28;20047;-66
2022/04/15 06:42:21;;;;;;;6.68;5.43;;;8.80;99.90;;;;;;5113503;28;20054;-66
2022/04/15 06:44:47;;;;;;;6.07;5.00;;;8.70;99.90;;;;;;5113657;28;20050;-66
2022/04/15 06:47:13;;;;;;;7.40;5.15;;;8.70;99.90;;;;;;5113676;28;20641;-66
2022/04/15 06:49:38;;;;;;;6.03;5.43;;;8.60;99.90;;;;;;5113207;28;20032;-66
2022/04/15 06:52:04;;;;;;;6.50;5.00;;;8.60;99.90;;;;;;5113339;28;20035;-66
2022/04/15 06:54:30;;;;;;;12.32;5.60;;;8.60;99.90;;;;;;5113312;28;20548;-67
2022/04/15 06:56:55;;;;;;;6.38;5.38;;;8.60;99.90;;;;;;5113485;28;20050;-66
2022/04/15 06:59:21;;;;;;;6.95;5.32;;;8.60;99.90;;;;;;5112894;28;20032;-66
2022/04/15 07:01:47;;;;;;;8.60;5.05;;;8.60;99.90;;;;;;5113011;28;20040;-66
2022/04/15 07:04:13;;;;;;;8.45;4.90;;;8.50;99.90;;;;;;5113071;28;20090;-66
2022/04/15 07:06:38;;;;;;;7.53;5.18;;;8.60;99.90;;;;;;5113007;28;20071;-66
2022/04/15 07:09:04;;;;;;;6.68;5.07;;;8.60;99.90;;;;;;5112846;28;20035;-66
2022/04/15 07:11:29;;;;;;;6.00;5.40;;;8.50;99.90;;;;;;5113255;28;20051;-66
2022/04/15 07:13:55;;;;;;;8.90;6.32;;;8.50;99.90;;;;;;5113082;28;20557;-66
2022/04/15 07:16:20;;;;;;;9.02;5.38;;;8.50;99.90;;;;;;5113090;28;20050;-67
2022/04/15 07:18:46;;;;;;;8.57;5.47;;;8.50;99.90;;;;;;5112677;28;20410;-66
2022/04/15 07:21:11;;;;;;;10.77;6.55;;;8.50;99.90;;;;;;5101039;28;20040;-66
2022/04/15 07:23:37;;;;;;;10.50;6.07;;;8.40;99.90;;;;;;5092186;28;20036;-67
2022/04/15 07:26:03;;;;;;;8.05;5.82;;;8.40;99.90;;;;;;5108028;28;20122;-66
2022/04/15 07:28:29;;;;;;;11.13;7.05;;;8.40;99.90;;;;;;5094498;28;20092;-67
2022/04/15 07:30:54;;;;;;;10.15;6.57;;;8.50;99.90;;;;;;5112911;28;20139;-66
2022/04/15 07:33:20;;;;;;;9.90;6.15;;;8.50;99.90;;;;;;5112274;28;20036;-66
2022/04/15 07:35:46;;;;;;;8.68;5.50;;;8.50;99.90;;;;;;5112165;28;20061;-66
2022/04/15 07:38:11;;;;;;;9.73;5.95;;;8.50;99.90;;;;;;5112557;28;20043;-67
2022/04/15 07:40:37;;;;;;;8.25;6.35;;;8.40;99.90;;;;;;5112577;28;20172;-66
2022/04/15 07:43:02;;;;;;;9.90;6.78;;;8.50;99.90;;;;;;5112667;28;20523;-66
2022/04/15 07:45:28;;;;;;;10.07;6.43;;;8.50;99.90;;;;;;5112544;28;20039;-66
2022/04/15 07:47:54;;;;;;;7.68;6.30;;;8.50;99.90;;;;;;5112433;28;20039;-70
2022/04/15 07:50:23;;;;;;;10.57;5.90;;;8.60;99.90;;;;;;5112169;28;20429;-67
2022/04/15 07:52:49;;;;;;;9.55;6.70;;;8.60;99.90;;;;;;5112127;28;20073;-67
2022/04/15 07:55:14;;;;;;;11.68;8.07;;;8.60;99.90;;;;;;5094281;28;20044;-67
2022/04/15 07:57:40;;;;;;;12.02;7.80;;;8.60;99.90;;;;;;5112395;28;20411;-67
2022/04/15 08:00:06;;;;;;;16.70;9.68;;;8.60;99.90;;;;;;5111866;28;20126;-66
2022/04/15 08:02:32;;;;;;;11.30;8.07;;;8.60;99.90;;;;;;5112204;28;20423;-67
2022/04/15 08:04:57;;;;;;;17.60;8.38;;;8.70;99.90;;;;;;5112133;28;20118;-66
2022/04/15 08:07:24;;;;;;;17.67;9.23;;;8.70;99.90;;;;;;5112138;28;20098;-67
2022/04/15 08:09:50;;;;;;;19.20;10.38;;;8.70;99.90;;;;;;5111955;28;20040;-67
2022/04/15 08:12:15;;;;;;;15.63;8.90;;;8.70;99.90;;;;;;5111994;28;20040;-66
2022/04/15 08:14:41;;;;;;;15.77;8.98;;;8.80;99.90;;;;;;5093740;28;20499;-67
2022/04/15 08:17:07;;;;;;;16.70;9.90;;;8.80;99.90;;;;;;5111907;28;20491;-67
2022/04/15 08:19:33;;;;;;;17.45;10.05;;;8.80;99.90;;;;;;5111628;28;20118;-68
2022/04/15 08:21:59;;;;;;;17.02;9.85;;;8.80;99.90;;;;;;5093327;28;20131;-67
2022/04/15 08:24:24;;;;;;;14.75;9.38;;;8.90;99.90;;;;;;5111871;28;20119;-68
2022/04/15 08:26:54;;;;;;;19.73;10.50;;;8.90;99.90;;;;;;5111865;28;20047;-65
2022/04/15 08:29:20;;;;;;;16.67;9.65;;;8.90;99.90;;;;;;5111493;28;20039;-66
2022/04/15 08:31:45;;;;;;;15.88;9.65;;;8.90;99.90;;;;;;5111633;28;20058;-67
2022/04/15 08:34:11;;;;;;;16.70;9.18;;;8.90;99.90;;;;;;5093210;28;20464;-70
2022/04/15 08:36:36;;;;;;;15.85;9.82;;;9.00;99.90;;;;;;5093270;28;20047;-70
2022/04/15 08:39:02;;;;;;;16.83;9.90;;;9.00;99.90;;;;;;5101815;28;20027;-70
2022/04/15 08:41:35;;;;;;;19.27;10.15;;;9.00;99.90;;;;;;5086690;28;20073;-70
2022/04/15 08:44:03;;;;;;;19.80;9.65;;;9.00;99.90;;;;;;5075441;28;20064;-70
2022/04/15 08:46:30;;;;;;;17.75;10.35;;;9.00;99.90;;;;;;5098098;28;20027;-70
2022/04/15 08:48:55;;;;;;;19.60;9.68;;;9.00;99.90;;;;;;5102143;28;20118;-70
2022/04/15 08:51:21;;;;;;;16.42;10.15;;;9.10;99.90;;;;;;5111600;28;20132;-69
2022/04/15 08:53:48;;;;;;;18.15;10.70;;;9.10;99.90;;;;;;5111559;28;20043;-70
2022/04/15 08:56:14;;;;;;;19.40;10.25;;;9.10;99.90;;;;;;5111389;28;20122;-70
2022/04/15 08:58:40;;;;;;;16.45;10.55;;;9.10;99.90;;;;;;5110956;28;20039;-67
2022/04/15 09:01:07;;;;;;;20.95;10.65;;;9.20;99.90;;;;;;5111320;28;20050;-67
2022/04/15 09:03:34;;;;;;;18.25;10.18;;;9.20;99.90;;;;;;5092776;28;20084;-66
2022/04/15 09:06:00;;;;;;;17.27;10.63;;;9.30;99.90;;;;;;5111416;28;20097;-67
2022/04/15 09:08:25;;;;;;;18.20;11.13;;;9.30;99.90;;;;;;5110911;28;20488;-70
2022/04/15 09:10:59;;;;;;;20.35;10.82;;;9.40;99.90;;;;;;5111400;28;20043;-66
2022/04/15 09:13:31;;;;;;;19.10;10.02;;;9.40;99.90;;;;;;5092885;28;20035;-68
2022/04/15 09:15:59;;;;;;;14.60;9.93;;;9.40;99.90;;;;;;5089926;28;20048;-67
2022/04/15 09:18:36;;;;;;;16.40;10.32;;;9.40;99.90;;;;;;5092616;28;20044;-69
2022/04/15 09:21:24;;;;;;;23.77;10.27;;;9.40;99.90;;;;;;5092466;28;20046;-68
2022/04/15 09:23:52;;;;;;;22.50;11.02;;;9.40;99.90;;;;;;5110586;28;20402;-68
2022/04/15 09:26:20;;;;;;;16.60;10.82;;;9.40;99.90;;;;;;5110460;28;20118;-69
2022/04/15 09:28:45;;;;;;;19.70;10.38;;;9.50;99.90;;;;;;5092188;28;20048;-68
2022/04/15 09:31:16;;;;;;;15.95;10.20;;;9.50;99.90;;;;;;5105483;28;20038;-68
2022/04/15 09:33:57;;;;;;;19.25;10.10;;;9.50;99.90;;;;;;5084729;28;20106;-68
2022/04/15 09:36:29;;;;;;;17.17;9.15;;;9.50;99.90;;;;;;5083686;28;20047;-69
2022/04/15 09:38:57;;;;;;;16.98;10.88;;;9.60;99.90;;;;;;5110002;28;20055;-68
2022/04/15 09:41:24;;;;;;;17.92;10.55;;;9.60;99.90;;;;;;5110709;28;20047;-69
2022/04/15 09:43:54;;;;;;;19.10;10.80;;;9.60;99.90;;;;;;5110471;28;20042;-68
2022/04/15 09:46:20;;;;;;;16.45;10.60;;;9.60;99.90;;;;;;5092183;28;20036;-68
2022/04/15 09:49:04;;;;;;;28.95;9.82;;;9.60;99.90;;;;;;5091847;28;20039;-69
2022/04/15 09:51:40;;;;;;;15.88;9.48;;;9.60;99.90;;;;;;5110210;28;20047;-67
2022/04/15 09:54:09;;;;;;;12.55;7.72;;;9.60;99.90;;;;;;5110399;28;20047;-68
2022/04/15 09:56:39;;;;;;;17.75;8.65;;;9.60;99.90;;;;;;5107143;28;21039;-68
2022/04/15 09:59:08;;;;;;;13.15;7.50;;;9.70;99.90;;;;;;5102763;28;20043;-69
2022/04/15 10:01:37;;;;;;;17.30;7.82;;;9.70;99.90;;;;;;5084049;28;20039;-68
2022/04/15 10:04:05;;;;;;;11.27;7.15;;;9.70;99.90;;;;;;5104348;28;20071;-69
2022/04/15 10:06:31;;;;;;;17.63;7.22;;;9.70;99.90;;;;;;5104559;28;20036;-69
2022/04/15 10:08:59;;;;;;;11.40;7.05;;;9.80;99.90;;;;;;5086688;28;20560;-69
2022/04/15 10:11:25;;;;;;;9.35;6.70;;;9.90;99.90;;;;;;5085778;28;20070;-67
2022/04/15 10:13:51;;;;;;;11.50;6.88;;;9.90;99.90;;;;;;5103804;28;20047;-68
2022/04/15 10:16:17;;;;;;;11.10;6.82;;;9.80;99.90;;;;;;5102573;28;20042;-68
2022/04/15 10:18:45;;;;;;;14.25;6.10;;;9.90;99.90;;;;;;5103813;28;20114;-68
2022/04/15 10:21:11;;;;;;;10.45;5.53;;;10.00;99.90;;;;;;5107637;28;20078;-68
2022/04/15 10:23:37;;;;;;;8.00;5.75;;;10.00;99.90;;;;;;5101572;28;20480;-67
2022/04/15 10:26:03;;;;;;;9.45;5.93;;;10.10;99.90;;;;;;5103410;28;20032;-71
2022/04/15 10:28:47;;;;;;;10.80;6.60;;;10.20;99.90;;;;;;5094442;28;20044;-71
2022/04/15 10:31:16;;;;;;;12.45;5.88;;;10.20;99.90;;;;;;5095733;28;20084;-72
2022/04/15 10:33:43;;;;;;;13.15;5.80;;;10.30;99.90;;;;;;5095610;28;20071;-68
2022/04/15 10:36:14;;;;;;;12.10;6.50;;;10.40;99.90;;;;;;5114053;28;20043;-68
2022/04/15 10:39:06;;;;;;;14.55;6.68;;;10.40;99.90;;;;;;5095313;28;20515;-69
2022/04/15 10:41:44;;;;;;;14.40;5.95;;;10.40;99.90;;;;;;5113659;28;20035;-68
2022/04/15 10:44:23;;;;;;;12.25;6.32;;;10.40;99.90;;;;;;5113520;28;20625;-68
2022/04/15 10:46:49;;;;;;;11.30;6.25;;;10.60;99.90;;;;;;5113809;28;20046;-68
2022/04/15 10:49:26;;;;;;;12.32;7.07;;;10.60;99.90;;;;;;5113323;28;20035;-68
2022/04/15 10:52:11;;;;;;;13.45;6.03;;;10.70;99.90;;;;;;5113412;28;20507;-70
2022/04/15 10:54:38;;;;;;;13.40;5.70;;;10.70;99.90;;;;;;5113708;28;20088;-68
2022/04/15 10:57:17;;;;;;;12.32;6.43;;;10.80;99.90;;;;;;5113574;28;20111;-69
2022/04/15 11:02:45;;;;;;;9.18;6.05;;;10.90;99.90;;;;;;5113666;28;20047;-69
2022/04/15 11:05:12;;;;;;;11.57;6.45;;;10.90;99.90;;;;;;5113330;28;20092;-70
2022/04/15 11:07:44;;;;;;;10.40;6.18;;;11.00;99.90;;;;;;5113358;28;20042;-67
2022/04/15 11:10:38;;;;;;;12.27;6.63;;;11.00;99.90;;;;;;5112962;28;20047;-73
2022/04/15 11:13:05;;;;;;;12.32;6.97;;;10.90;99.90;;;;;;5110186;28;20043;-73
2022/04/15 11:15:52;;;;;;;9.30;6.00;;;10.90;99.90;;;;;;5095035;28;20051;-72
2022/04/15 11:18:18;;;;;;;11.13;6.05;;;11.00;99.90;;;;;;5112850;28;20116;-73
2022/04/15 11:20:45;;;;;;;15.25;7.22;;;11.00;99.90;;;;;;5112761;28;20585;-72
2022/04/15 11:23:11;;;;;;;9.68;6.45;;;11.00;99.90;;;;;;5112687;28;20062;-72
2022/04/15 11:25:44;;;;;;;15.05;6.43;;;11.10;99.90;;;;;;5112734;28;20436;-72
2022/04/15 11:28:10;;;;;;;10.05;6.00;;;11.10;99.90;;;;;;5094629;28;20433;-72
2022/04/15 11:30:36;;;;;;;12.25;6.50;;;11.10;99.90;;;;;;5114642;28;20043;-68
2022/04/15 11:33:04;;;;;;;9.48;6.45;;;11.10;99.90;;;;;;5112868;28;20085;-69
2022/04/15 11:35:35;;;;;;;13.02;6.55;;;11.10;99.90;;;;;;5112897;28;20040;-69
2022/04/15 11:38:15;;;;;;;13.63;6.55;;;11.10;99.90;;;;;;5104104;28;20044;-68
2022/04/15 11:40:43;;;;;;;12.00;6.40;;;11.20;99.90;;;;;;5084484;28;20067;-69
2022/04/15 11:43:10;;;;;;;12.20;6.60;;;11.10;99.90;;;;;;5103713;28;20131;-68
2022/04/15 11:45:41;;;;;;;8.35;6.47;;;11.10;99.90;;;;;;5103690;28;20039;-69
2022/04/15 11:48:23;;;;;;;11.48;5.95;;;11.10;99.90;;;;;;5112434;28;20067;-69
2022/04/15 11:50:51;;;;;;;9.20;5.88;;;11.20;99.90;;;;;;5112496;28;20047;-68
2022/04/15 11:53:18;;;;;;;11.70;5.93;;;11.20;99.90;;;;;;5112440;28;20044;-68
2022/04/15 11:55:55;;;;;;;11.20;6.00;;;11.20;99.90;;;;;;5094229;28;20047;-69
2022/04/15 11:58:22;;;;;;;14.77;6.93;;;11.20;99.90;;;;;;5112108;28;20069;-69
2022/04/15 12:01:05;;;;;;;9.35;5.75;;;11.20;99.90;;;;;;5093668;28;20043;-69
2022/04/15 12:03:31;;;;;;;10.52;7.35;;;11.30;99.90;;;;;;5112327;28;20050;-69
2022/04/15 12:06:01;;;;;;;11.43;6.15;;;11.30;99.90;;;;;;5112050;28;20044;-69
2022/04/15 12:08:29;;;;;;;12.83;6.33;;;11.30;99.90;;;;;;5111843;28;20507;-69
2022/04/15 12:10:55;;;;;;;10.98;6.55;;;11.30;99.90;;;;;;5093720;28;20071;-69
2022/04/15 12:13:21;;;;;;;11.38;6.47;;;11.40;99.90;;;;;;5102123;28;20082;-69
2022/04/15 12:15:46;;;;;;;9.70;7.53;;;11.30;99.90;;;;;;5110248;28;20495;-69
2022/04/15 12:18:12;;;;;;;14.48;7.15;;;11.40;99.90;;;;;;5093702;28;20055;-68
2022/04/15 12:20:42;;;;;;;13.75;7.50;;;11.40;99.90;;;;;;5092744;28;20040;-68
2022/04/15 12:23:16;;;;;;;16.02;7.35;;;11.40;99.90;;;;;;5093177;28;20085;-68
2022/04/15 12:31:31;;;;;;;10.77;6.97;;;11.40;99.90;;;;;;5111714;28;20140;-69
2022/04/15 12:33:58;;;;;;;11.48;6.82;;;11.30;99.90;;;;;;5111525;28;20077;-68
2022/04/15 12:36:24;;;;;;;12.90;7.75;;;11.30;99.90;;;;;;5111561;28;20035;-68
2022/04/15 12:39:00;;;;;;;12.57;7.18;;;11.30;99.90;;;;;;5111235;28;20062;-68
2022/04/15 12:41:45;;;;;;;11.27;6.68;;;11.40;99.90;;;;;;5093233;28;20051;-68
2022/04/15 12:44:27;;;;;;;10.77;7.43;;;11.30;99.90;;;;;;5111406;28;20043;-68
2022/04/15 12:47:00;;;;;;;14.07;7.68;;;11.30;99.90;;;;;;5111675;28;20083;-68
2022/04/15 12:49:36;;;;;;;11.93;7.25;;;11.40;99.90;;;;;;5111285;28;20039;-68
2022/04/15 12:52:32;;;;;;;15.65;8.13;;;11.40;99.90;;;;;;5111436;28;20039;-68
2022/04/15 12:55:02;;;;;;;11.68;7.28;;;11.40;99.90;;;;;;5109716;28;20058;-67
2022/04/15 12:57:32;;;;;;;12.80;8.13;;;11.30;99.90;;;;;;5093040;28;20044;-69